Time;durP1;ratioP1;P1;durP2;ratioP2;P2;SDS_P1;SDS_P2;PMS_P1;PMS_P2;Temp;Humidity;BMP_temperature;BMP_pressure;BME280_temperature;BME280_humidity;BME280_pressure;Samples;Min_cycle;Max_cycle;Signal;HPM_P1;HPM_P2
2023/06/05 00:00:09;;;;;;;5.47;1.70;;;;;;;14.48;100.00;149678.34;6244571;23;20240;-64
2023/06/05 00:02:36;;;;;;;3.47;1.60;;;;;;;14.52;100.00;149688.50;6245090;23;20161;-63
2023/06/05 00:05:08;;;;;;;1.73;1.60;;;;;;;14.59;100.00;149705.00;6245023;23;20231;-62
2023/06/05 00:07:38;;;;;;;2.20;1.40;;;;;;;14.61;100.00;149710.03;6244655;23;20157;-62
2023/06/05 00:10:07;;;;;;;2.70;1.40;;;;;;;14.71;100.00;149735.44;6244626;23;20211;-62
2023/06/05 00:12:33;;;;;;;1.80;1.70;;;;;;;14.65;100.00;149720.19;6245228;23;20589;-62
2023/06/05 00:15:01;;;;;;;12.63;1.70;;;;;;;14.75;100.00;149744.28;6244808;23;20529;-62
2023/06/05 00:17:30;;;;;;;4.00;1.80;;;;;;;14.77;100.00;149749.34;6244522;23;20165;-62
2023/06/05 00:19:58;;;;;;;2.13;1.47;;;;;;;14.66;100.00;149721.47;6244999;23;20570;-62
2023/06/05 00:22:25;;;;;;;2.00;1.50;;;;;;;14.60;100.00;149707.50;6244391;23;20161;-62
2023/06/05 00:24:53;;;;;;;2.37;1.50;;;;;;;14.59;100.00;149705.00;6244739;23;20488;-63
2023/06/05 00:27:20;;;;;;;1.70;1.60;;;;;;;14.53;100.00;149689.75;6244795;23;20523;-62
2023/06/05 00:29:47;;;;;;;2.87;1.50;;;;;;;14.50;100.00;149682.16;6244736;23;20608;-62
2023/06/05 00:32:14;;;;;;;1.80;1.40;;;;;;;14.34;100.00;149641.56;6244819;23;20179;-62
2023/06/05 00:34:41;;;;;;;5.07;1.53;;;;;;;14.42;100.00;149661.88;6244537;23;20188;-62
2023/06/05 00:37:08;;;;;;;1.60;1.50;;;;;;;14.30;100.00;149631.41;6244365;23;20161;-62
2023/06/05 00:39:34;;;;;;;1.80;1.43;;;;;;;14.32;100.00;149637.72;6244601;23;20172;-61
2023/06/05 00:42:03;;;;;;;3.60;1.50;;;;;;;14.29;100.00;149628.88;6244616;23;20608;-62
2023/06/05 00:44:30;;;;;;;1.53;1.40;;;;;;;14.17;100.00;149600.94;6213477;23;20154;-63
2023/06/05 00:46:57;;;;;;;5.77;1.47;;;;;;;14.31;100.00;149635.19;6213830;23;20203;-62
2023/06/05 00:49:25;;;;;;;2.10;1.40;;;;;;;14.29;100.00;149628.88;6213972;23;20158;-63
2023/06/05 00:51:52;;;;;;;1.60;1.50;;;;;;;14.26;100.00;149621.28;6213857;23;20164;-62
2023/06/05 00:54:20;;;;;;;3.13;1.90;;;;;;;14.22;100.00;149611.09;6213782;23;20181;-62
2023/06/05 00:56:48;;;;;;;1.93;1.30;;;;;;;14.20;100.00;149607.31;6214132;23;20616;-61
2023/06/05 00:59:17;;;;;;;3.03;1.50;;;;;;;14.22;100.00;149612.34;6213894;23;20157;-62
2023/06/05 01:01:45;;;;;;;9.20;1.77;;;;;;;14.16;100.00;149597.19;6213799;23;20500;-62
2023/06/05 01:04:12;;;;;;;2.70;1.43;;;;;;;14.24;100.00;149617.44;6214056;23;20561;-61
2023/06/05 01:06:40;;;;;;;3.17;1.50;;;;;;;13.68;100.00;149476.75;6214469;23;20184;-62
2023/06/05 01:09:08;;;;;;;2.83;1.83;;;;;;;14.00;100.00;149556.63;6214455;23;20284;-62
2023/06/05 01:11:41;;;;;;;2.00;1.83;;;;;;;13.91;100.00;149535.06;6213783;23;20173;-61
2023/06/05 01:14:17;;;;;;;1.53;1.43;;;;;;;13.77;100.00;149498.31;6187427;23;20188;-61
2023/06/05 01:16:50;;;;;;;1.73;1.63;;;;;;;13.74;100.00;149492.00;6213625;23;20172;-62
2023/06/05 01:19:18;;;;;;;2.47;1.50;;;;;;;13.88;100.00;149527.44;6214151;23;20605;-62
2023/06/05 01:21:45;;;;;;;1.73;1.63;;;;;;;13.95;100.00;149545.22;6213753;23;20162;-62
2023/06/05 01:24:15;;;;;;;1.73;1.67;;;;;;;13.79;100.00;149503.41;6213676;23;20153;-61
2023/06/05 01:26:52;;;;;;;3.30;1.60;;;;;;;13.85;100.00;149519.84;6213893;23;20589;-62
2023/06/05 01:29:23;;;;;;;3.43;2.27;;;;;;;13.78;100.00;149502.13;6213587;23;20161;-62
2023/06/05 01:31:52;;;;;;;5.43;1.30;;;;;;;13.59;100.00;149453.94;6213472;23;20162;-61
2023/06/05 01:34:20;;;;;;;5.90;1.70;;;;;;;13.50;100.00;149432.41;6213861;23;20185;-62
2023/06/05 01:36:48;;;;;;;1.40;1.30;;;;;;;13.59;100.00;149453.94;6213680;23;20162;-62
2023/06/05 01:39:18;;;;;;;2.73;1.70;;;;;;;13.60;100.00;149456.50;6213909;23;20648;-62
2023/06/05 01:41:46;;;;;;;3.83;1.63;;;;;;;13.60;100.00;149456.50;6213905;23;20567;-63
2023/06/05 01:44:15;;;;;;;2.73;1.60;;;;;;;13.53;100.00;149438.78;6240685;23;20200;-62
2023/06/05 01:46:43;;;;;;;2.03;1.93;;;;;;;13.40;100.00;149405.81;6243819;23;20160;-62
2023/06/05 01:49:11;;;;;;;3.50;1.80;;;;;;;13.11;100.00;131286.56;6244278;23;20588;-62
2023/06/05 01:51:38;;;;;;;3.07;1.83;;;;;;;13.13;100.00;119307.56;6244145;23;20184;-63
2023/06/05 01:54:05;;;;;;;6.83;2.10;;;;;;;12.91;100.00;115942.63;6243635;23;20235;-62
2023/06/05 01:56:35;;;;;;;3.13;1.90;;;;;;;12.99;100.00;104690.44;6245659;23;20163;-62
2023/06/05 01:59:06;;;;;;;6.47;2.40;;;;;;;12.91;100.00;103683.94;6246147;23;20512;-62
2023/06/05 02:01:34;;;;;;;6.93;2.00;;;;;;;12.79;100.00;90462.91;6245670;23;20165;-62
2023/06/05 02:04:04;;;;;;;3.50;2.20;;;;;;;12.85;100.00;82246.38;6246204;23;20492;-62
2023/06/05 02:06:41;;;;;;;2.03;1.93;;;;;;;12.91;100.00;84227.41;6246175;23;20611;-61
2023/06/05 02:09:10;;;;;;;6.10;1.73;;;;;;;13.04;100.00;84574.34;6245761;23;20196;-61
2023/06/05 02:11:38;;;;;;;8.97;2.37;;;;;;;13.14;100.00;83602.63;6246231;23;20687;-62
2023/06/05 02:14:06;;;;;;;3.90;2.27;;;;;;;13.16;100.00;87225.66;6246153;23;20621;-61
2023/06/05 02:16:33;;;;;;;10.60;2.17;;;;;;;13.15;100.00;89859.38;6246002;23;20168;-62
2023/06/05 02:19:03;;;;;;;4.00;2.33;;;;;;;13.28;100.00;90208.94;6246057;23;20154;-63
2023/06/05 02:21:33;;;;;;;2.77;2.50;;;;;;;13.26;100.00;90864.38;6245973;23;20683;-61
2023/06/05 02:24:00;;;;;;;4.43;1.90;;;;;;;13.36;100.00;100785.19;6245532;23;20168;-61
2023/06/05 02:26:27;;;;;;;5.40;2.00;;;;;;;13.33;100.00;122339.06;6246157;23;20157;-61
2023/06/05 02:28:55;;;;;;;2.00;1.70;;;;;;;13.30;100.00;125662.28;6245499;23;20157;-62
2023/06/05 02:31:24;;;;;;;2.63;1.80;;;;;;;13.39;100.00;124016.63;6245531;23;20163;-62
2023/06/05 02:33:52;;;;;;;5.27;2.47;;;;;;;13.34;100.00;124339.00;6245864;23;20192;-62
2023/06/05 02:36:19;;;;;;;3.47;2.03;;;;;;;13.28;100.00;122662.44;6246020;23;20556;-63
2023/06/05 02:38:49;;;;;;;2.47;2.27;;;;;;;13.41;100.00;127017.19;6245433;23;20157;-62
2023/06/05 02:41:16;;;;;;;3.10;1.93;;;;;;;13.47;100.00;123034.81;6245820;23;20157;-62
2023/06/05 02:43:44;;;;;;;6.33;2.13;;;;;;;13.18;100.00;131635.66;6245751;23;20207;-62
2023/06/05 02:46:12;;;;;;;6.77;2.17;;;;;;;13.36;100.00;126674.34;6245789;23;20153;-63
2023/06/05 02:48:39;;;;;;;10.00;2.00;;;;;;;13.44;100.00;128690.03;6245812;23;20157;-61
2023/06/05 02:51:07;;;;;;;6.27;2.27;;;;;;;13.34;100.00;119349.09;6245422;23;20161;-62
2023/06/05 02:53:34;;;;;;;6.33;1.47;;;;;;;13.34;100.00;114698.22;6245723;23;20157;-63
2023/06/05 02:56:01;;;;;;;3.50;1.83;;;;;;;13.43;100.00;118369.03;6245141;23;20192;-62
2023/06/05 02:58:29;;;;;;;4.57;1.90;;;;;;;13.53;100.00;124711.06;6245746;23;20260;-61
2023/06/05 03:01:01;;;;;;;5.13;2.37;;;;;;;13.42;100.00;136026.88;6245159;23;20169;-63
2023/06/05 03:03:30;;;;;;;6.30;2.20;;;;;;;13.48;100.00;148968.94;6245306;23;20159;-61
2023/06/05 03:06:03;;;;;;;4.57;2.30;;;;;;;13.59;100.00;149383.19;6244961;23;20207;-62
2023/06/05 03:08:31;;;;;;;6.77;2.00;;;;;;;13.72;100.00;149486.91;6244785;23;20199;-62
2023/06/05 03:10:59;;;;;;;8.10;2.20;;;;;;;13.63;100.00;148375.41;6245542;23;20317;-61
2023/06/05 03:13:26;;;;;;;8.83;2.50;;;;;;;14.05;100.00;149570.53;6245105;23;20164;-62
2023/06/05 03:15:56;;;;;;;3.67;2.37;;;;;;;14.39;100.00;149655.50;6244954;23;20176;-62
2023/06/05 03:18:24;;;;;;;11.60;3.83;;;;;;;14.90;100.00;149782.31;6245364;23;20164;-62
2023/06/05 03:20:54;;;;;;;2.63;2.43;;;;;;;15.47;100.00;149925.69;6245241;23;20161;-62
2023/06/05 03:23:22;;;;;;;8.63;2.77;;;;;;;15.92;100.00;150038.66;6218938;23;20215;-62
2023/06/05 03:25:50;;;;;;;9.23;2.40;;;;;;;16.14;100.00;150094.53;6245128;23;20157;-62
2023/06/05 03:28:17;;;;;;;5.57;2.50;;;;;;;16.02;100.00;150062.81;6245276;23;20595;-61
2023/06/05 03:30:44;;;;;;;3.47;2.37;;;;;;;15.85;100.00;150020.91;6245374;23;20164;-62
2023/06/05 03:33:13;;;;;;;5.73;1.70;;;;;;;15.52;100.00;149939.72;6245615;23;20161;-62
2023/06/05 03:35:41;;;;;;;4.10;1.80;;;;;;;15.67;100.00;149976.50;6244980;23;20215;-62
2023/06/05 03:38:09;;;;;;;2.03;1.93;;;;;;;15.78;100.00;150004.44;6245359;23;20157;-62
2023/06/05 03:40:39;;;;;;;4.20;2.00;;;;;;;15.92;100.00;150039.94;6244955;23;20604;-62
2023/06/05 03:43:06;;;;;;;7.43;2.10;;;;;;;16.00;100.00;150058.97;6244912;23;20654;-62
2023/06/05 03:45:33;;;;;;;3.53;1.90;;;;;;;16.06;100.00;150072.94;6245489;23;20244;-62
2023/06/05 03:48:00;;;;;;;3.43;1.80;;;;;;;16.18;100.00;150103.41;6244707;23;20161;-62
2023/06/05 03:50:30;;;;;;;3.30;2.00;;;;;;;16.16;100.00;150099.63;6245079;23;20161;-63
2023/06/05 03:53:02;;;;;;;6.03;2.30;;;;;;;16.31;100.00;150136.44;6245442;23;20236;-61
2023/06/05 03:55:40;;;;;;;8.37;3.17;;;;;;;16.37;100.00;150151.69;6245113;23;20180;-62
2023/06/05 03:58:13;;;;;;;12.57;3.43;;;;;;;16.42;100.00;150165.63;6245057;23;20568;-62
2023/06/05 04:00:40;;;;;;;6.90;3.77;;;;;;;16.48;100.00;150179.59;6244576;23;20161;-62
2023/06/05 04:03:08;;;;;;;14.70;3.93;;;;;;;16.60;100.00;150210.13;6245023;23;20650;-62
2023/06/05 04:05:35;;;;;;;9.03;5.07;;;;;;;16.66;100.00;150225.38;6244738;23;20172;-62
2023/06/05 04:08:02;;;;;;;8.07;5.47;;;;;;;16.88;100.00;150281.28;6245000;23;20231;-62
2023/06/05 04:10:31;;;;;;;11.50;6.80;;;;;;;17.11;100.00;150337.13;6245109;23;20157;-62
2023/06/05 04:12:58;;;;;;;13.83;6.90;;;;;;;17.18;100.00;150354.94;6244919;23;20158;-62
2023/06/05 04:15:25;;;;;;;18.40;7.53;;;;;;;17.42;100.00;150414.66;6244829;23;20508;-62
2023/06/05 04:17:52;;;;;;;20.37;7.33;;;;;;;17.61;100.00;150464.25;6244966;23;20584;-62
2023/06/05 04:20:19;;;;;;;17.30;7.80;;;;;;;17.76;100.00;150502.41;6244983;23;20515;-62
2023/06/05 04:22:46;;;;;;;21.10;9.10;;;;;;;17.86;100.00;150525.28;6245141;23;20240;-62
2023/06/05 04:25:13;;;;;;;31.93;8.93;;;;;;;17.89;100.00;150532.91;6244782;23;20157;-62
2023/06/05 04:27:43;;;;;;;11.20;7.27;;;;;;;18.11;100.00;150590.13;6244504;23;20222;-62
2023/06/05 04:30:12;;;;;;;17.70;8.83;;;;;;;18.10;100.00;150586.28;6245093;23;20496;-61
2023/06/05 04:32:41;;;;;;;18.67;8.70;;;;;;;18.39;100.00;150660.03;6244558;23;20152;-62
2023/06/05 04:35:09;;;;;;;22.83;9.43;;;;;;;18.61;100.00;150716.06;6244264;23;20184;-63
2023/06/05 04:37:37;;;;;;;21.90;9.30;;;;;;;18.75;100.00;150750.41;6244643;23;20179;-62
2023/06/05 04:40:05;;;;;;;17.70;8.30;;;;;;;18.86;100.00;150777.09;6244756;23;20642;-62
2023/06/05 04:42:32;;;;;;;11.33;7.30;;;;;;;18.94;100.00;150797.44;6244380;22;20304;-63
2023/06/05 04:45:04;;;;;;;7.97;5.87;;;;;;;19.01;100.00;150816.50;6244622;23;20626;-62
2023/06/05 04:47:32;;;;;;;10.53;6.70;;;;;;;19.13;100.00;150845.81;6244295;23;20211;-62
2023/06/05 04:50:03;;;;;;;6.63;6.03;;;;;;;19.30;100.00;150887.78;6244701;23;20157;-63
2023/06/05 04:52:30;;;;;;;15.50;7.40;;;;;;;19.29;100.00;150886.50;6244551;23;20168;-62
2023/06/05 04:54:58;;;;;;;12.03;6.37;;;;;;;19.47;100.00;150932.38;6243994;23;20235;-62
2023/06/05 04:57:27;;;;;;;8.93;5.43;;;;;;;19.65;100.00;150976.88;6244685;23;20157;-63
2023/06/05 04:59:54;;;;;;;17.97;5.90;;;;;;;19.85;100.00;151027.84;6244509;23;20611;-62
2023/06/05 05:02:22;;;;;;;7.27;4.37;;;;;;;20.12;100.00;151095.28;6244089;23;20157;-62
2023/06/05 05:04:49;;;;;;;5.47;4.90;;;;;;;20.26;100.00;151130.94;6245484;23;20195;-61
2023/06/05 05:07:16;;;;;;;5.33;4.80;;;;;;;20.51;100.00;151193.38;6245557;23;20469;-61
2023/06/05 05:09:44;;;;;;;9.37;4.70;;;;;;;20.35;100.00;151153.91;6244427;23;20219;-63
2023/06/05 05:12:11;;;;;;;16.27;4.90;;;;;;;20.71;100.00;151243.09;6244372;23;20153;-62
2023/06/05 05:14:39;;;;;;;7.43;3.67;;;;;;;20.87;100.00;151283.84;6245336;23;20227;-61
2023/06/05 05:17:06;;;;;;;8.30;3.43;;;;;;;21.01;100.00;151318.19;6245114;23;20299;-63
2023/06/05 05:19:35;;;;;;;8.17;3.30;;;;;;;21.28;100.00;151387.06;6247068;23;20239;-64
2023/06/05 05:22:02;;;;;;;9.30;3.42;;;;;;;21.50;100.00;151441.88;6245874;23;20157;-63
2023/06/05 05:24:32;;;;;;;16.02;4.30;;;;;;;21.78;100.00;151514.50;6246588;23;20619;-64
2023/06/05 05:26:59;;;;;;;9.43;3.80;;;;;;;21.91;100.00;151546.38;6219780;23;20175;-64
2023/06/05 05:29:26;;;;;;;6.38;3.22;;;;;;;22.19;100.00;151617.81;6246615;23;20200;-64
2023/06/05 05:31:53;;;;;;;10.00;3.90;;;;;;;22.45;100.00;151681.59;6249743;23;20161;-65
2023/06/05 05:34:21;;;;;;;10.15;3.58;;;;;;;22.65;100.00;151733.88;6249504;23;20161;-62
2023/06/05 05:36:52;;;;;;;13.40;3.00;;;;;;;22.83;100.00;151778.53;6245164;23;20186;-60
2023/06/05 05:39:20;;;;;;;8.98;3.22;;;;;;;23.04;100.00;151832.13;6246273;23;20164;-59
2023/06/05 05:41:47;;;;;;;7.85;3.60;;;;;;;23.15;100.00;151860.22;6244180;23;20175;-59
2023/06/05 05:44:14;;;;;;;7.75;2.88;;;;;;;23.61;100.00;151975.09;6243814;23;20197;-60
2023/06/05 05:46:40;;;;;;;7.00;2.75;;;;;;;23.88;100.00;152044.03;6244550;23;20235;-59
2023/06/05 05:49:07;;;;;;;10.23;2.63;;;;;;;24.21;93.40;152125.78;6244518;23;20596;-58
2023/06/05 05:51:35;;;;;;;6.05;2.47;;;;;;;24.47;92.18;152192.19;6244231;23;20558;-60
2023/06/05 05:54:03;;;;;;;7.85;3.42;;;;;;;24.49;94.93;152197.25;6245095;23;20499;-64
2023/06/05 05:56:30;;;;;;;29.80;5.22;;;;;;;24.57;98.11;152217.69;6244507;23;20299;-62
2023/06/05 05:58:57;;;;;;;29.38;6.60;;;;;;;24.58;100.00;152220.25;6245837;23;20603;-63
2023/06/05 06:01:24;;;;;;;20.38;5.25;;;;;;;24.68;100.00;152245.81;6245409;23;20188;-63
2023/06/05 06:03:51;;;;;;;14.90;5.22;;;;;;;24.93;94.70;152309.72;6245332;23;20504;-62
2023/06/05 06:06:18;;;;;;;19.13;4.65;;;;;;;25.03;90.69;152334.00;6245346;23;20592;-62
2023/06/05 06:08:45;;;;;;;25.23;6.50;;;;;;;24.96;95.02;152317.38;6244260;23;20171;-62
2023/06/05 06:11:13;;;;;;;22.75;5.25;;;;;;;24.92;89.02;152307.16;6243648;23;20263;-63
2023/06/05 06:13:41;;;;;;;18.35;4.78;;;;;;;24.97;87.08;152319.94;6241865;23;20153;-65
2023/06/05 06:16:08;;;;;;;11.00;3.80;;;;;;;25.34;81.89;152411.91;6243704;23;20654;-63
2023/06/05 06:18:39;;;;;;;11.93;3.90;;;;;;;25.79;78.92;152527.00;6243374;23;20169;-63
2023/06/05 06:21:06;;;;;;;18.92;3.95;;;;;;;26.04;72.93;152588.34;6244685;23;20157;-63
2023/06/05 06:23:33;;;;;;;13.45;4.15;;;;;;;25.87;70.59;152546.16;6243782;23;20164;-63
2023/06/05 06:26:01;;;;;;;6.97;3.05;;;;;;;26.29;68.21;152652.31;6243843;23;20682;-63
2023/06/05 06:28:29;;;;;;;8.07;3.20;;;;;;;26.25;66.36;152643.38;6244549;23;20547;-62
2023/06/05 06:30:56;;;;;;;2.67;2.33;;;;;;;26.05;66.83;152590.91;6244092;23;20163;-63
2023/06/05 06:33:24;;;;;;;5.88;2.40;;;;;;;26.22;65.10;152634.44;6244802;23;20244;-63
2023/06/05 06:35:51;;;;;;;11.32;2.60;;;;;;;26.44;64.55;152690.66;6243720;23;20188;-62
2023/06/05 06:38:18;;;;;;;7.70;2.10;;;;;;;26.68;58.87;152752.06;6244138;23;20580;-64
2023/06/05 06:40:46;;;;;;;2.85;1.45;;;;;;;25.30;50.87;152401.69;6243868;23;20161;-64
2023/06/05 06:43:13;;;;;;;4.53;1.40;;;;;;;24.98;52.35;152322.50;6245453;23;20259;-64
2023/06/05 06:45:44;;;;;;;4.05;1.40;;;;;;;25.67;49.75;152495.06;6246694;23;20165;-62
2023/06/05 06:48:11;;;;;;;1.17;0.95;;;;;;;25.64;47.32;152488.63;6246751;23;20157;-63
2023/06/05 06:50:38;;;;;;;1.52;1.42;;;;;;;24.63;48.55;152233.03;6245870;23;20251;-63
2023/06/05 06:53:05;;;;;;;1.50;1.40;;;;;;;24.88;50.58;152296.94;6249028;23;20160;-64
2023/06/05 06:55:32;;;;;;;1.95;1.10;;;;;;;24.67;48.70;152241.97;6246199;23;20173;-63
2023/06/05 06:57:59;;;;;;;2.55;1.10;;;;;;;24.68;48.07;152245.81;6245559;23;20157;-63
2023/06/05 07:00:26;;;;;;;1.00;1.00;;;;;;;25.04;49.54;152336.53;6245506;23;20240;-57
2023/06/05 07:02:55;;;;;;;2.42;0.93;;;;;;;24.57;47.71;152217.69;6218266;23;20164;-57
2023/06/05 07:05:22;;;;;;;5.32;2.05;;;;;;;24.19;49.45;152120.69;6245349;23;20239;-56
2023/06/05 07:07:49;;;;;;;3.85;1.05;;;;;;;23.85;47.16;152036.34;6245065;23;20251;-57
2023/06/05 07:10:16;;;;;;;8.05;1.20;;;;;;;23.62;46.48;151977.66;6245325;23;20167;-57
2023/06/05 07:12:43;;;;;;;2.40;1.00;;;;;;;23.76;48.19;152013.41;6244954;23;20161;-57
2023/06/05 07:15:11;;;;;;;1.58;1.48;;;;;;;23.81;50.97;152026.13;6244529;23;20169;-58
2023/06/05 07:17:38;;;;;;;8.82;1.40;;;;;;;23.83;51.90;152031.28;6244624;23;20183;-57
2023/06/05 07:20:08;;;;;;;2.55;1.65;;;;;;;24.04;51.19;152084.88;6245578;23;20268;-59
2023/06/05 07:22:35;;;;;;;4.38;1.55;;;;;;;24.15;52.35;152111.72;6245283;23;20168;-60
2023/06/05 07:25:03;;;;;;;3.47;1.17;;;;;;;24.25;53.11;152137.28;6244634;23;20175;-58
2023/06/05 07:27:30;;;;;;;1.40;1.10;;;;;;;24.09;55.82;152097.66;6245281;23;20236;-57
2023/06/05 07:29:57;;;;;;;1.20;1.20;;;;;;;24.01;54.21;152075.97;6218401;23;20220;-56
2023/06/05 07:32:24;;;;;;;5.10;2.10;;;;;;;23.81;55.46;152026.13;6245148;23;20605;-57
2023/06/05 07:34:55;;;;;;;3.33;1.58;;;;;;;24.17;57.06;152115.56;6244771;23;20169;-57
2023/06/05 07:37:23;;;;;;;1.67;1.10;;;;;;;23.94;57.29;152059.34;6244571;23;20184;-58
2023/06/05 07:39:51;;;;;;;2.47;1.45;;;;;;;23.89;59.63;152046.56;6245098;23;20175;-57
2023/06/05 07:42:18;;;;;;;1.58;1.48;;;;;;;24.08;59.81;152093.81;6244525;23;20173;-57
2023/06/05 07:44:45;;;;;;;1.20;1.10;;;;;;;23.67;60.09;151991.72;6244679;23;20164;-57
2023/06/05 07:47:15;;;;;;;1.13;1.10;;;;;;;23.79;58.05;152021.06;6244884;23;20153;-59
2023/06/05 07:49:42;;;;;;;4.38;1.30;;;;;;;23.91;57.96;152051.69;6244962;23;20161;-57
2023/06/05 07:52:11;;;;;;;4.57;1.23;;;;;;;24.02;64.50;152079.75;6244702;23;20183;-57
2023/06/05 07:54:39;;;;;;;2.90;1.58;;;;;;;24.03;66.02;152082.31;6244196;23;20199;-59
2023/06/05 07:57:09;;;;;;;2.75;1.45;;;;;;;23.37;72.72;151915.09;6244412;23;20181;-56
2023/06/05 07:59:36;;;;;;;3.53;1.50;;;;;;;23.84;76.10;152033.84;6244455;23;20239;-57
2023/06/05 08:02:05;;;;;;;1.60;1.50;;;;;;;23.80;81.92;152023.63;6244054;23;20163;-56
2023/06/05 08:04:32;;;;;;;1.67;1.30;;;;;;;23.89;83.59;152045.31;6243416;23;20256;-58
2023/06/05 08:06:59;;;;;;;15.77;1.98;;;;;;;24.09;88.24;152096.38;6244214;23;20209;-57
2023/06/05 08:09:26;;;;;;;8.50;1.33;;;;;;;24.70;84.59;152249.63;6244555;23;20207;-57
2023/06/05 08:11:55;;;;;;;1.67;1.58;;;;;;;24.84;90.16;152285.41;6244603;23;20157;-57
2023/06/05 08:14:21;;;;;;;6.97;1.85;;;;;;;24.58;100.00;152220.25;6244220;23;20168;-57
2023/06/05 08:16:48;;;;;;;2.47;1.70;;;;;;;24.61;100.00;152226.66;6244557;23;20508;-57
2023/06/05 08:19:15;;;;;;;1.77;1.67;;;;;;;24.36;99.50;152165.34;6244761;23;20249;-57
2023/06/05 08:21:42;;;;;;;1.98;1.10;;;;;;;24.14;92.06;152109.16;6243738;23;20244;-58
2023/06/05 08:24:09;;;;;;;7.60;1.77;;;;;;;24.06;90.68;152089.97;6244182;23;20163;-57
2023/06/05 08:26:36;;;;;;;2.55;1.33;;;;;;;23.73;92.18;152005.72;6243898;23;20240;-58
2023/06/05 08:29:06;;;;;;;8.73;1.50;;;;;;;23.57;86.76;151964.91;6244002;23;20204;-57
2023/06/05 08:31:36;;;;;;;2.67;1.30;;;;;;;23.53;82.31;151954.69;6244060;23;20496;-55
2023/06/05 08:34:03;;;;;;;1.40;1.30;;;;;;;23.32;83.64;151901.03;6243975;23;20180;-58
2023/06/05 08:36:32;;;;;;;1.65;1.40;;;;;;;23.45;88.01;151935.56;6216674;23;20203;-57
2023/06/05 08:38:59;;;;;;;5.57;1.70;;;;;;;23.81;90.55;152024.84;6243873;23;20168;-58
2023/06/05 08:41:26;;;;;;;1.15;1.15;;;;;;;23.99;87.52;152072.13;6217237;23;20161;-57
2023/06/05 08:43:53;;;;;;;2.85;1.20;;;;;;;23.88;86.13;152044.03;6243591;23;20203;-58
2023/06/05 08:46:22;;;;;;;2.95;1.63;;;;;;;23.91;85.84;152050.41;6243995;23;20157;-58
2023/06/05 08:48:51;;;;;;;7.78;1.35;;;;;;;24.01;81.83;152077.25;6243811;23;20240;-56
2023/06/05 08:51:21;;;;;;;5.07;1.33;;;;;;;24.12;81.02;152105.31;6244098;23;20157;-57
2023/06/05 08:53:52;;;;;;;3.08;1.40;;;;;;;24.27;79.83;152141.13;6243785;23;20168;-60
2023/06/05 08:56:20;;;;;;;1.65;1.52;;;;;;;24.43;76.96;152181.97;6244236;23;20176;-57
2023/06/05 08:58:49;;;;;;;3.00;1.30;;;;;;;24.44;77.82;152184.53;6244644;23;20584;-56
2023/06/05 09:01:16;;;;;;;1.17;1.13;;;;;;;24.50;79.57;152201.13;6244484;23;20614;-58
2023/06/05 09:03:44;;;;;;;3.75;1.58;;;;;;;24.16;79.36;152114.28;6244313;23;20202;-55
2023/06/05 09:06:11;;;;;;;1.27;1.08;;;;;;;24.01;85.85;152077.25;6243690;23;20172;-58
2023/06/05 09:08:39;;;;;;;1.50;1.10;;;;;;;23.90;83.58;152049.13;6244043;23;20244;-57
2023/06/05 09:11:26;;;;;;;1.23;1.13;;;;;;;23.57;85.56;151964.91;6244625;23;20195;-57
2023/06/05 09:13:55;;;;;;;1.30;1.20;;;;;;;23.26;84.38;151885.72;6243787;23;20195;-57
2023/06/05 09:16:22;;;;;;;3.28;1.20;;;;;;;23.37;82.26;151913.81;6243674;23;20188;-58
2023/06/05 09:18:55;;;;;;;1.55;1.45;;;;;;;23.21;86.87;151875.50;6243805;23;20157;-59
2023/06/05 09:21:28;;;;;;;1.98;1.70;;;;;;;23.21;89.26;151875.50;6244274;23;20157;-58
2023/06/05 09:24:13;;;;;;;1.25;1.08;;;;;;;23.21;87.21;151875.50;6243734;23;20506;-57
2023/06/05 09:26:51;;;;;;;6.43;1.40;;;;;;;23.30;85.10;151895.97;6243688;23;20157;-57
2023/06/05 09:29:23;;;;;;;2.92;1.55;;;;;;;23.15;90.00;151860.22;6243676;23;20215;-58
2023/06/05 09:31:51;;;;;;;2.30;1.45;;;;;;;23.26;86.14;151887.00;6243967;23;20160;-57
2023/06/05 09:34:30;;;;;;;7.22;1.60;;;;;;;23.38;81.85;151917.59;6243558;23;20163;-57
2023/06/05 09:36:59;;;;;;;1.85;1.52;;;;;;;23.46;83.46;151936.84;6244210;23;20239;-57
2023/06/05 09:39:27;;;;;;;4.15;1.27;;;;;;;23.45;88.88;151934.28;6243823;23;20545;-58
2023/06/05 09:41:55;;;;;;;4.00;1.67;;;;;;;23.80;83.45;152023.63;6243284;23;20169;-57
2023/06/05 09:44:23;;;;;;;2.08;1.98;;;;;;;24.18;78.64;152119.41;6243240;23;20200;-57
2023/06/05 09:46:55;;;;;;;2.58;1.30;;;;;;;24.30;72.31;152148.75;6243630;23;20157;-57
2023/06/05 09:49:25;;;;;;;4.57;1.95;;;;;;;24.56;71.33;152215.19;6246065;23;20214;-63
2023/06/05 09:51:55;;;;;;;1.88;1.50;;;;;;;24.83;67.22;152284.13;6244159;23;20164;-64
2023/06/05 09:54:23;;;;;;;3.95;1.60;;;;;;;25.13;65.79;152358.25;6244134;23;20268;-64
2023/06/05 09:56:50;;;;;;;3.70;1.42;;;;;;;24.58;68.30;152221.53;6245013;23;20205;-66
2023/06/05 09:59:22;;;;;;;1.40;1.30;;;;;;;24.39;68.22;152171.75;6245625;23;20231;-64
2023/06/05 10:01:52;;;;;;;1.70;1.60;;;;;;;24.04;70.01;152083.59;6245507;23;20161;-63
2023/06/05 10:04:23;;;;;;;3.22;1.60;;;;;;;24.09;68.90;152097.66;6245422;23;20256;-64
2023/06/05 10:06:55;;;;;;;2.95;1.10;;;;;;;24.05;67.28;152087.44;6244339;23;20176;-66
2023/06/05 10:09:23;;;;;;;4.20;1.40;;;;;;;23.87;67.44;152041.47;6243374;23;20204;-64
2023/06/05 10:11:51;;;;;;;1.38;1.30;;;;;;;23.79;71.87;152019.78;6244883;23;20153;-64
2023/06/05 10:14:21;;;;;;;4.90;1.30;;;;;;;23.51;72.91;151949.56;6245110;23;20240;-64
2023/06/05 10:16:51;;;;;;;1.40;1.30;;;;;;;23.49;75.07;151944.47;6246644;23;20176;-64
2023/06/05 10:19:20;;;;;;;3.55;1.10;;;;;;;23.68;75.57;151994.22;6245822;23;20172;-64
2023/06/05 10:21:49;;;;;;;6.75;1.27;;;;;;;23.52;72.31;151952.13;6251307;23;20167;-64
2023/06/05 10:24:22;;;;;;;1.23;1.13;;;;;;;23.02;80.37;151827.03;6245985;23;20161;-64
2023/06/05 10:27:24;;;;;;;4.30;1.30;;;;;;;23.14;82.97;151856.38;6245942;23;20180;-64
2023/06/05 10:30:27;;;;;;;3.28;1.63;;;;;;;23.05;85.28;151834.69;6207925;23;20178;-63
2023/06/05 10:33:09;;;;;;;4.57;1.48;;;;;;;23.12;89.71;151852.56;6246002;23;20622;-64
2023/06/05 10:35:48;;;;;;;1.75;1.40;;;;;;;22.96;95.04;151811.72;6245307;23;20203;-64
2023/06/05 10:38:20;;;;;;;1.88;0.93;;;;;;;23.27;86.15;151888.28;6245505;23;20181;-65
2023/06/05 10:40:52;;;;;;;1.80;1.27;;;;;;;23.22;79.18;151876.78;6245340;23;20204;-65
2023/06/05 10:43:30;;;;;;;8.70;1.35;;;;;;;23.07;77.46;151839.81;6245294;23;20284;-64
2023/06/05 10:45:59;;;;;;;2.75;1.10;;;;;;;22.63;80.25;151727.50;6245545;23;20161;-64
2023/06/05 10:48:59;;;;;;;4.15;1.05;;;;;;;22.72;82.43;151750.50;6245094;23;20631;-65
2023/06/05 10:51:42;;;;;;;1.70;0.90;;;;;;;22.39;86.01;151666.28;6235769;23;20169;-64
2023/06/05 10:54:10;;;;;;;1.30;1.20;;;;;;;22.55;86.78;151708.38;6245828;23;20299;-64
2023/06/05 10:57:01;;;;;;;2.05;0.85;;;;;;;22.30;92.09;151645.88;6243485;23;20167;-63
2023/06/05 10:59:30;;;;;;;0.90;0.80;;;;;;;22.39;90.96;151667.56;6245061;23;20615;-63
2023/06/05 11:02:28;;;;;;;2.75;1.23;;;;;;;22.24;86.23;151630.56;6244944;23;20247;-64
2023/06/05 11:05:10;;;;;;;1.13;1.02;;;;;;;22.26;83.23;151635.69;6245316;23;20243;-64
2023/06/05 11:07:39;;;;;;;3.42;1.15;;;;;;;22.18;82.69;151615.28;6244632;23;20232;-64
2023/06/05 11:10:20;;;;;;;1.83;0.70;;;;;;;22.25;82.61;151631.84;6245337;23;20161;-65
2023/06/05 11:13:02;;;;;;;8.88;1.20;;;;;;;22.29;80.02;151642.03;6245093;23;20164;-64
2023/06/05 11:15:42;;;;;;;1.80;0.93;;;;;;;22.12;76.63;151599.97;6244804;23;20167;-64
2023/06/05 11:18:29;;;;;;;4.15;1.40;;;;;;;21.79;75.69;151515.78;6245589;23;20231;-64
2023/06/05 11:20:56;;;;;;;3.50;1.50;;;;;;;22.04;76.81;151579.56;6245163;23;20223;-63
2023/06/05 11:23:27;;;;;;;2.63;0.95;;;;;;;22.01;76.04;151571.94;6248310;23;20164;-64
2023/06/05 11:26:00;;;;;;;3.95;0.93;;;;;;;21.96;78.39;151557.91;6247349;23;20185;-61
2023/06/05 11:28:41;;;;;;;1.92;0.85;;;;;;;22.07;80.03;151585.94;6245228;23;20165;-63